Time;durP1;ratioP1;P1;durP2;ratioP2;P2;SDS_P1;SDS_P2;PMS_P1;PMS_P2;Temp;Humidity;BMP_temperature;BMP_pressure;BME280_temperature;BME280_humidity;BME280_pressure;Samples;Min_cycle;Max_cycle;Signal;HPM_P1;HPM_P2
2022/06/25 00:01:13;;;;;;;6.35;5.90;;;18.30;99.90;;;;;;5092575;28;20380;-78
2022/06/25 00:03:40;;;;;;;7.43;6.18;;;18.30;99.90;;;;;;5092225;28;20048;-78
2022/06/25 00:06:06;;;;;;;12.25;6.15;;;18.30;99.90;;;;;;5094084;28;20480;-77
2022/06/25 00:08:33;;;;;;;6.25;5.75;;;18.20;99.90;;;;;;5097969;28;20035;-78
2022/06/25 00:10:59;;;;;;;8.95;5.88;;;18.20;99.90;;;;;;5096594;28;20024;-78
2022/06/25 00:13:24;;;;;;;6.30;5.80;;;18.20;99.90;;;;;;5097034;28;20020;-77
2022/06/25 00:15:50;;;;;;;5.70;5.20;;;18.20;99.90;;;;;;5095976;28;20041;-77
2022/06/25 00:18:16;;;;;;;5.85;5.22;;;18.20;99.90;;;;;;5083068;28;20040;-77
2022/06/25 00:20:43;;;;;;;8.27;6.45;;;18.10;99.90;;;;;;5096528;28;20019;-77
2022/06/25 00:23:09;;;;;;;10.20;5.85;;;18.20;99.90;;;;;;5097692;28;20028;-77
2022/06/25 00:25:34;;;;;;;7.05;5.55;;;18.20;99.90;;;;;;5096665;28;20384;-77
2022/06/25 00:28:00;;;;;;;6.50;5.90;;;18.20;99.90;;;;;;5097200;28;20495;-78
2022/06/25 00:30:26;;;;;;;6.03;5.43;;;18.10;99.90;;;;;;5097228;28;20035;-77
2022/06/25 00:32:51;;;;;;;6.43;5.88;;;18.10;99.90;;;;;;5095341;28;20012;-76
2022/06/25 00:35:17;;;;;;;5.60;5.20;;;18.10;99.90;;;;;;5096924;28;20024;-77
2022/06/25 00:37:42;;;;;;;5.90;5.30;;;18.10;99.90;;;;;;5095898;28;20415;-77
2022/06/25 00:40:09;;;;;;;5.55;5.15;;;18.10;99.90;;;;;;5094690;28;20020;-77
2022/06/25 00:42:35;;;;;;;5.43;5.00;;;18.00;99.90;;;;;;5096623;28;20016;-78
2022/06/25 00:45:00;;;;;;;5.22;4.72;;;18.00;99.90;;;;;;5103315;28;20045;-79
2022/06/25 00:47:26;;;;;;;5.82;4.93;;;18.00;99.90;;;;;;5097581;28;20106;-78
2022/06/25 00:49:52;;;;;;;5.00;4.60;;;18.10;99.90;;;;;;5095513;28;20032;-79
2022/06/25 00:52:20;;;;;;;4.80;4.28;;;18.00;99.90;;;;;;5095065;28;20025;-78
2022/06/25 00:54:51;;;;;;;5.88;4.95;;;18.00;99.90;;;;;;5095230;28;20016;-77
2022/06/25 00:57:24;;;;;;;6.80;4.70;;;18.00;99.90;;;;;;5095514;28;20052;-78
2022/06/25 00:59:50;;;;;;;5.03;4.63;;;18.00;99.90;;;;;;5094525;28;20027;-78
2022/06/25 01:02:17;;;;;;;4.88;4.53;;;18.00;99.90;;;;;;5094972;28;20044;-78
2022/06/25 01:04:43;;;;;;;5.57;5.03;;;17.90;99.90;;;;;;5093930;28;20029;-78
2022/06/25 01:07:09;;;;;;;7.82;4.93;;;17.90;99.90;;;;;;5092926;28;20032;-78
2022/06/25 01:09:36;;;;;;;5.45;5.00;;;17.90;99.90;;;;;;5093815;28;20040;-76
2022/06/25 01:12:02;;;;;;;5.28;4.88;;;17.90;99.90;;;;;;5093964;28;20428;-77
2022/06/25 01:14:27;;;;;;;5.28;4.88;;;17.80;99.90;;;;;;5094284;28;20062;-77
2022/06/25 01:16:53;;;;;;;5.30;4.80;;;17.90;99.90;;;;;;5091859;28;20024;-76
2022/06/25 01:19:19;;;;;;;5.65;5.18;;;17.80;99.90;;;;;;5082510;28;20024;-77
2022/06/25 01:21:45;;;;;;;7.20;5.05;;;17.80;99.90;;;;;;5093920;28;20056;-77
2022/06/25 01:24:11;;;;;;;5.45;4.95;;;17.80;99.90;;;;;;5094548;28;20093;-77
2022/06/25 01:26:41;;;;;;;8.55;4.40;;;17.80;99.90;;;;;;5094459;28;20089;-78
2022/06/25 01:29:08;;;;;;;5.20;4.80;;;17.70;99.90;;;;;;5092668;28;20050;-77
2022/06/25 01:31:34;;;;;;;5.05;4.65;;;17.70;99.90;;;;;;5094164;28;20455;-78
2022/06/25 01:34:00;;;;;;;4.85;4.55;;;17.70;99.90;;;;;;5093713;28;20028;-77
2022/06/25 01:36:26;;;;;;;4.28;3.97;;;17.70;99.90;;;;;;5084517;28;20419;-77
2022/06/25 01:38:52;;;;;;;5.00;4.63;;;17.70;99.90;;;;;;5088822;28;20377;-77
2022/06/25 01:41:18;;;;;;;5.22;4.80;;;17.70;99.90;;;;;;5093176;28;20064;-76
2022/06/25 01:43:44;;;;;;;4.90;4.47;;;17.60;99.90;;;;;;5094095;28;20020;-77
2022/06/25 01:46:10;;;;;;;6.70;5.07;;;17.60;99.90;;;;;;5093105;28;20372;-76
2022/06/25 01:48:36;;;;;;;6.10;4.75;;;17.70;99.90;;;;;;5092502;28;20032;-76
2022/06/25 01:51:02;;;;;;;4.85;4.47;;;17.60;99.90;;;;;;5090330;28;20376;-77
2022/06/25 01:53:29;;;;;;;5.95;4.47;;;17.60;99.90;;;;;;5071510;28;20025;-78
2022/06/25 01:55:55;;;;;;;13.73;4.47;;;17.60;99.90;;;;;;5075695;28;20099;-77
2022/06/25 01:58:21;;;;;;;5.65;4.88;;;17.70;99.90;;;;;;5081140;28;20078;-77
2022/06/25 02:00:47;;;;;;;5.13;4.10;;;17.70;99.90;;;;;;5085733;28;20056;-76
2022/06/25 02:03:14;;;;;;;5.20;4.70;;;17.70;99.90;;;;;;5050101;28;1067188;-77
2022/06/25 02:05:59;;;;;;;5.05;4.18;;;17.70;99.90;;;;;;5094435;28;20036;-77
2022/06/25 02:08:29;;;;;;;6.03;4.70;;;17.70;99.90;;;;;;5094724;28;20032;-75
2022/06/25 02:10:56;;;;;;;4.45;4.13;;;17.70;99.90;;;;;;5093072;28;20357;-77
2022/06/25 02:13:22;;;;;;;5.03;4.60;;;17.70;99.90;;;;;;5093501;28;20028;-77
2022/06/25 02:15:48;;;;;;;5.95;5.18;;;17.70;99.90;;;;;;5093412;28;20057;-77
2022/06/25 02:18:13;;;;;;;5.93;4.47;;;17.70;99.90;;;;;;5093928;28;20074;-76
2022/06/25 02:20:40;;;;;;;5.25;4.75;;;17.50;99.90;;;;;;5094748;28;20065;-77
2022/06/25 02:23:07;;;;;;;4.85;4.45;;;17.60;99.90;;;;;;5094423;28;20034;-77
2022/06/25 02:25:32;;;;;;;6.53;4.85;;;17.60;99.90;;;;;;5093274;28;20043;-77
2022/06/25 02:27:58;;;;;;;5.50;4.57;;;17.60;99.90;;;;;;5080085;28;20480;-77
2022/06/25 02:30:24;;;;;;;4.82;4.30;;;17.60;99.90;;;;;;5093622;28;20020;-77
2022/06/25 02:32:49;;;;;;;6.00;4.70;;;17.60;99.90;;;;;;5093203;28;20503;-77
2022/06/25 02:35:15;;;;;;;5.25;4.57;;;17.50;99.90;;;;;;5094397;28;20033;-77
2022/06/25 02:37:40;;;;;;;6.38;4.55;;;17.50;99.90;;;;;;5094123;28;20026;-77
2022/06/25 02:40:06;;;;;;;5.10;4.70;;;17.50;99.90;;;;;;5093680;28;20028;-77
2022/06/25 02:42:39;;;;;;;4.97;4.38;;;17.50;99.90;;;;;;5093742;28;20056;-77
2022/06/25 02:45:06;;;;;;;5.57;4.50;;;17.40;99.90;;;;;;5093100;28;20058;-79
2022/06/25 02:47:32;;;;;;;5.57;4.13;;;17.50;99.90;;;;;;5093525;28;20389;-78
2022/06/25 02:49:58;;;;;;;5.75;4.40;;;17.40;99.90;;;;;;5093104;28;20032;-77
2022/06/25 02:52:24;;;;;;;5.68;5.07;;;17.40;99.90;;;;;;5093553;28;20544;-78
2022/06/25 02:54:50;;;;;;;4.88;4.47;;;17.30;99.90;;;;;;5094040;28;20040;-77
2022/06/25 03:00:04;;;;;;;5.18;4.50;;;17.30;99.90;;;;;;5042633;28;20036;-77
2022/06/25 03:02:30;;;;;;;4.85;4.43;;;17.30;99.90;;;;;;5083606;28;20051;-77
2022/06/25 03:04:55;;;;;;;5.38;4.88;;;17.30;99.90;;;;;;5093477;28;20027;-77
2022/06/25 03:07:21;;;;;;;5.13;4.68;;;17.20;99.90;;;;;;5092796;28;20020;-77
2022/06/25 03:09:47;;;;;;;5.55;4.85;;;17.20;99.90;;;;;;5093416;28;20119;-78
2022/06/25 03:12:12;;;;;;;4.88;4.47;;;17.20;99.90;;;;;;5093034;28;20089;-77
2022/06/25 03:14:38;;;;;;;5.20;4.80;;;17.20;99.90;;;;;;5092267;28;20027;-79
2022/06/25 03:17:04;;;;;;;5.28;4.88;;;17.20;99.90;;;;;;5091943;28;20012;-77
2022/06/25 03:19:30;;;;;;;6.13;4.78;;;17.20;99.90;;;;;;5091944;28;20028;-77
2022/06/25 03:21:56;;;;;;;5.50;4.35;;;17.20;99.90;;;;;;5092371;28;20383;-77
2022/06/25 03:24:21;;;;;;;5.55;5.07;;;17.20;99.90;;;;;;5093182;28;20031;-77
2022/06/25 03:26:47;;;;;;;4.97;4.38;;;17.20;99.90;;;;;;5091970;28;20041;-76
2022/06/25 03:29:13;;;;;;;4.82;4.40;;;17.30;99.90;;;;;;5092022;28;20285;-79
2022/06/25 03:31:39;;;;;;;4.82;4.20;;;17.40;99.90;;;;;;5092280;28;20529;-78
2022/06/25 03:34:05;;;;;;;4.82;4.28;;;17.40;99.90;;;;;;5091514;28;20031;-77
2022/06/25 03:36:31;;;;;;;6.30;4.90;;;17.50;99.90;;;;;;5092234;28;20028;-78
2022/06/25 03:38:57;;;;;;;5.40;4.78;;;17.50;99.90;;;;;;5091914;28;20039;-79
2022/06/25 03:41:37;;;;;;;7.43;4.88;;;17.60;99.90;;;;;;5091651;28;20028;-78
2022/06/25 03:44:09;;;;;;;4.75;4.35;;;17.60;99.90;;;;;;5091977;28;20035;-77
2022/06/25 03:46:37;;;;;;;6.25;4.13;;;17.70;99.90;;;;;;5092351;28;20020;-77
2022/06/25 03:49:03;;;;;;;7.80;4.13;;;17.70;99.90;;;;;;5091074;28;20069;-78
2022/06/25 03:51:29;;;;;;;4.95;3.88;;;17.80;99.90;;;;;;5092880;28;20016;-78
2022/06/25 03:53:55;;;;;;;6.97;3.90;;;17.80;99.90;;;;;;5092268;28;20540;-77
2022/06/25 03:56:21;;;;;;;10.27;4.07;;;17.90;99.90;;;;;;5092165;28;20016;-81
2022/06/25 03:58:47;;;;;;;5.63;3.85;;;18.00;99.90;;;;;;5093612;28;20052;-80
2022/06/25 04:01:13;;;;;;;3.92;3.63;;;18.00;99.90;;;;;;5079945;28;20028;-79
2022/06/25 04:03:42;;;;;;;4.25;3.60;;;18.00;99.90;;;;;;5086086;28;20044;-77
2022/06/25 04:06:08;;;;;;;3.97;3.15;;;18.00;99.90;;;;;;5083527;28;20025;-78
2022/06/25 04:08:34;;;;;;;4.63;3.78;;;18.10;99.90;;;;;;5075084;28;20115;-78
2022/06/25 04:11:00;;;;;;;6.30;3.78;;;18.20;99.90;;;;;;5071249;28;20012;-78
2022/06/25 04:13:26;;;;;;;3.47;3.17;;;18.30;99.90;;;;;;5072711;28;20031;-79
2022/06/25 04:15:52;;;;;;;5.43;3.00;;;18.30;99.90;;;;;;5071499;28;20021;-78
2022/06/25 04:18:17;;;;;;;3.55;3.20;;;18.30;99.90;;;;;;5076471;28;20021;-78
2022/06/25 04:20:43;;;;;;;4.55;3.00;;;18.50;99.90;;;;;;5073755;28;20111;-78
2022/06/25 04:23:09;;;;;;;3.63;2.97;;;18.60;99.90;;;;;;5072591;28;20028;-78
2022/06/25 04:25:34;;;;;;;4.03;3.10;;;18.60;99.90;;;;;;5076186;28;20081;-76
2022/06/25 04:30:44;;;;;;;4.43;2.63;;;18.70;99.90;;;;;;5071318;28;20036;-77
2022/06/25 04:33:10;;;;;;;2.58;2.38;;;18.70;99.90;;;;;;5072856;28;20021;-77
2022/06/25 04:35:35;;;;;;;4.82;2.88;;;18.80;99.90;;;;;;5081414;28;20047;-78
2022/06/25 04:38:02;;;;;;;2.92;2.60;;;18.80;99.90;;;;;;5071249;28;20179;-79
2022/06/25 04:40:29;;;;;;;8.60;2.58;;;18.90;99.90;;;;;;5072099;28;20025;-78
2022/06/25 04:42:55;;;;;;;2.75;2.55;;;18.90;99.90;;;;;;5071606;28;20520;-77
2022/06/25 04:45:20;;;;;;;4.50;2.80;;;19.00;99.90;;;;;;5074126;28;20108;-78
2022/06/25 04:47:46;;;;;;;2.72;2.42;;;19.00;99.90;;;;;;5073595;28;20158;-78
2022/06/25 04:50:12;;;;;;;3.38;2.90;;;19.00;99.90;;;;;;5071435;28;20037;-79
2022/06/25 04:52:38;;;;;;;2.80;2.38;;;19.00;99.90;;;;;;5072745;28;20028;-78
2022/06/25 04:55:04;;;;;;;7.53;3.75;;;19.00;99.90;;;;;;5075528;28;20033;-78
2022/06/25 04:57:30;;;;;;;3.45;2.78;;;18.90;99.90;;;;;;5075526;28;20361;-79
2022/06/25 04:59:55;;;;;;;3.42;2.50;;;18.90;99.90;;;;;;5075023;28;20023;-77
2022/06/25 05:02:21;;;;;;;4.85;3.22;;;18.90;99.90;;;;;;5082323;28;20468;-78
2022/06/25 05:04:46;;;;;;;5.80;2.70;;;18.80;99.90;;;;;;5093877;28;20016;-78
2022/06/25 05:07:12;;;;;;;3.70;2.88;;;18.80;99.90;;;;;;5093991;28;20021;-77
2022/06/25 05:09:38;;;;;;;3.95;2.70;;;18.70;99.90;;;;;;5094546;28;20480;-78
2022/06/25 05:12:03;;;;;;;2.95;2.22;;;18.80;99.90;;;;;;5089642;28;20392;-77
2022/06/25 05:14:29;;;;;;;3.60;2.70;;;18.80;99.90;;;;;;5089544;28;20403;-78
2022/06/25 05:16:55;;;;;;;3.42;2.95;;;18.80;99.90;;;;;;5088750;28;20041;-77
2022/06/25 05:19:21;;;;;;;8.68;2.80;;;18.80;99.90;;;;;;5091891;28;20020;-78
2022/06/25 05:21:46;;;;;;;7.43;3.58;;;18.90;99.90;;;;;;5092933;28;20035;-77
2022/06/25 05:24:12;;;;;;;6.40;3.25;;;18.90;99.90;;;;;;5092364;28;20028;-76
2022/06/25 05:26:38;;;;;;;5.70;2.28;;;19.00;99.90;;;;;;5090528;28;20028;-76
2022/06/25 05:29:03;;;;;;;5.20;2.97;;;19.00;99.90;;;;;;5076080;28;20073;-78
2022/06/25 05:31:29;;;;;;;5.18;2.90;;;19.00;99.90;;;;;;5074695;28;20377;-79
2022/06/25 05:33:55;;;;;;;6.65;3.00;;;19.10;99.90;;;;;;5073432;28;20035;-77
2022/06/25 05:36:21;;;;;;;3.42;3.00;;;19.10;99.90;;;;;;5085329;28;20028;-77
2022/06/25 05:38:46;;;;;;;3.63;2.97;;;19.10;99.90;;;;;;5074387;28;20028;-78
2022/06/25 05:41:12;;;;;;;4.18;2.95;;;19.10;99.90;;;;;;5073665;28;20158;-78
2022/06/25 05:43:39;;;;;;;5.13;3.33;;;19.20;99.90;;;;;;5078126;28;20094;-78
2022/06/25 05:46:05;;;;;;;6.55;3.15;;;19.20;99.90;;;;;;5074584;28;20381;-76
2022/06/25 05:48:31;;;;;;;3.25;2.83;;;19.20;99.90;;;;;;5074392;28;20079;-77
2022/06/25 05:50:57;;;;;;;10.18;3.53;;;19.30;99.90;;;;;;5074842;28;20052;-77
2022/06/25 05:53:23;;;;;;;8.90;3.13;;;19.30;99.90;;;;;;5074852;28;20017;-77
2022/06/25 05:55:49;;;;;;;6.15;3.30;;;19.40;99.90;;;;;;5091556;28;20024;-78
2022/06/25 05:58:15;;;;;;;3.83;3.17;;;19.50;99.90;;;;;;5090575;28;20073;-76
2022/06/25 06:00:40;;;;;;;3.88;3.00;;;19.50;99.90;;;;;;5093671;28;20016;-76
2022/06/25 06:03:06;;;;;;;5.75;3.63;;;19.70;99.90;;;;;;5087862;28;20143;-77
2022/06/25 06:05:32;;;;;;;3.17;2.88;;;19.80;99.90;;;;;;5074620;28;20533;-77
2022/06/25 06:07:57;;;;;;;4.18;3.20;;;19.90;99.90;;;;;;5088393;28;20073;-79
2022/06/25 06:10:23;;;;;;;5.25;2.80;;;20.00;99.90;;;;;;5075376;28;20100;-78
2022/06/25 06:12:49;;;;;;;3.75;3.13;;;20.10;99.90;;;;;;5074126;28;20453;-77
2022/06/25 06:15:14;;;;;;;3.03;2.25;;;20.20;99.90;;;;;;5073495;28;20472;-79
2022/06/25 06:17:40;;;;;;;3.22;2.65;;;20.30;99.90;;;;;;5072508;28;20016;-78
2022/06/25 06:20:07;;;;;;;13.20;3.00;;;20.30;99.90;;;;;;5073935;28;20025;-79
2022/06/25 06:22:32;;;;;;;4.30;3.20;;;20.40;99.90;;;;;;5076150;28;20045;-76
2022/06/25 06:24:58;;;;;;;5.05;3.30;;;20.40;99.90;;;;;;5073683;28;20098;-75
2022/06/25 06:27:24;;;;;;;5.47;3.90;;;20.50;99.90;;;;;;5077707;28;20077;-77
2022/06/25 06:29:49;;;;;;;3.50;3.03;;;20.60;99.90;;;;;;5081959;28;20346;-80
2022/06/25 06:32:15;;;;;;;6.72;3.08;;;20.70;99.90;;;;;;5072779;28;20051;-75
2022/06/25 06:34:42;;;;;;;4.72;2.70;;;20.70;99.90;;;;;;5073246;28;20051;-76
2022/06/25 06:37:07;;;;;;;6.78;3.60;;;20.80;99.90;;;;;;5073902;28;20223;-76
2022/06/25 06:39:33;;;;;;;4.70;3.15;;;21.00;99.90;;;;;;5073509;28;20081;-80
2022/06/25 06:41:58;;;;;;;7.20;3.53;;;21.20;99.90;;;;;;5083175;28;20016;-76
2022/06/25 06:44:24;;;;;;;5.80;3.13;;;21.30;99.90;;;;;;5072337;28;20522;-74
2022/06/25 06:46:50;;;;;;;5.70;2.63;;;21.40;99.90;;;;;;5073008;28;20031;-76
2022/06/25 06:49:15;;;;;;;5.18;2.72;;;21.40;99.90;;;;;;5072944;28;20115;-77
2022/06/25 06:51:41;;;;;;;10.20;3.33;;;21.40;99.90;;;;;;5072281;28;20070;-77
2022/06/25 06:54:06;;;;;;;7.97;3.50;;;21.50;99.90;;;;;;5081078;28;20031;-74
2022/06/25 06:56:32;;;;;;;4.90;2.70;;;21.50;99.90;;;;;;5072487;28;20051;-73
2022/06/25 06:58:58;;;;;;;5.03;3.00;;;21.60;99.90;;;;;;5082375;28;20043;-77
2022/06/25 07:01:23;;;;;;;6.10;3.08;;;21.70;99.90;;;;;;5074524;28;20434;-77
2022/06/25 07:03:49;;;;;;;6.72;2.78;;;21.70;99.90;;;;;;5092391;28;20043;-78
2022/06/25 07:06:15;;;;;;;3.30;2.35;;;21.70;99.90;;;;;;5092132;28;20393;-73
2022/06/25 07:08:40;;;;;;;6.88;3.15;;;21.80;99.90;;;;;;5092657;28;20046;-77
2022/06/25 07:11:28;;;;;;;5.95;2.97;;;21.80;99.90;;;;;;5092671;28;20099;-77
2022/06/25 07:13:53;;;;;;;3.72;2.85;;;21.90;99.90;;;;;;5086667;28;20021;-75
2022/06/25 07:16:19;;;;;;;6.75;3.60;;;21.90;99.90;;;;;;5073096;28;20031;-77
2022/06/25 07:18:45;;;;;;;3.60;2.60;;;21.90;99.90;;;;;;5073274;28;20029;-77
2022/06/25 07:21:10;;;;;;;5.45;2.53;;;22.00;99.90;;;;;;5072204;28;20021;-77
2022/06/25 07:23:36;;;;;;;3.63;2.42;;;21.90;99.90;;;;;;5072518;28;20090;-78
2022/06/25 07:26:01;;;;;;;3.47;3.05;;;21.80;99.90;;;;;;5071769;28;20123;-77
2022/06/25 07:28:27;;;;;;;4.63;2.58;;;21.80;99.90;;;;;;5072569;28;20048;-78
2022/06/25 07:30:53;;;;;;;9.77;2.70;;;21.70;99.90;;;;;;5076511;28;20063;-77
2022/06/25 07:33:19;;;;;;;8.32;2.95;;;21.60;99.90;;;;;;5086554;28;20016;-76
2022/06/25 07:35:44;;;;;;;5.03;3.33;;;21.50;99.90;;;;;;5089132;28;20088;-77
2022/06/25 07:38:10;;;;;;;4.22;2.72;;;21.40;99.90;;;;;;5088025;28;20123;-77
2022/06/25 07:40:35;;;;;;;8.13;3.22;;;21.30;99.90;;;;;;5089993;28;20020;-77
2022/06/25 07:43:02;;;;;;;4.45;3.28;;;21.30;99.90;;;;;;5091264;28;20043;-78
2022/06/25 07:45:27;;;;;;;6.78;3.47;;;21.20;99.90;;;;;;5089347;28;20020;-77
2022/06/25 07:47:53;;;;;;;7.43;3.78;;;21.30;99.90;;;;;;5086705;28;20085;-77
2022/06/25 07:53:03;;;;;;;3.45;2.80;;;21.40;99.90;;;;;;5089307;28;20126;-78
2022/06/25 07:55:29;;;;;;;5.95;3.50;;;21.30;99.90;;;;;;5087212;28;20091;-78
2022/06/25 07:57:54;;;;;;;8.30;3.58;;;21.30;99.90;;;;;;5086244;28;20021;-78
2022/06/25 08:00:20;;;;;;;6.63;3.15;;;21.30;99.90;;;;;;5088332;28;20433;-77
2022/06/25 08:02:45;;;;;;;5.97;3.38;;;21.20;99.90;;;;;;5087046;28;20036;-77
2022/06/25 08:05:11;;;;;;;7.47;3.28;;;21.30;99.90;;;;;;5091005;28;20107;-77
2022/06/25 08:07:37;;;;;;;4.57;3.03;;;21.40;99.90;;;;;;5088684;28;20351;-78
2022/06/25 08:10:03;;;;;;;6.70;3.53;;;21.50;99.90;;;;;;5083794;28;20029;-78
2022/06/25 08:12:29;;;;;;;5.60;3.45;;;21.50;99.90;;;;;;5089266;28;20375;-79
2022/06/25 08:14:54;;;;;;;6.60;3.30;;;21.60;99.90;;;;;;5089906;28;20020;-77
2022/06/25 08:17:20;;;;;;;4.22;2.83;;;21.70;99.90;;;;;;5087358;28;20020;-75
2022/06/25 08:19:46;;;;;;;6.10;3.95;;;21.90;99.90;;;;;;5091368;28;20034;-77
2022/06/25 08:22:12;;;;;;;7.15;2.90;;;21.90;99.90;;;;;;5088463;28;20046;-77
2022/06/25 08:24:37;;;;;;;10.02;3.78;;;21.90;99.90;;;;;;5089570;28;20531;-78
2022/06/25 08:27:03;;;;;;;7.53;3.20;;;22.00;99.90;;;;;;5074476;28;20117;-77
2022/06/25 08:29:29;;;;;;;4.82;3.65;;;21.90;99.90;;;;;;5078372;28;20036;-78
2022/06/25 08:31:54;;;;;;;5.20;2.80;;;21.80;99.90;;;;;;5078154;28;20024;-80
2022/06/25 08:34:20;;;;;;;5.40;3.15;;;21.80;99.90;;;;;;5076176;28;20460;-78
2022/06/25 08:36:46;;;;;;;7.47;3.20;;;21.80;99.90;;;;;;5082305;28;20051;-77
2022/06/25 08:39:11;;;;;;;9.13;3.63;;;21.80;99.90;;;;;;5084253;28;20028;-81
2022/06/25 08:41:37;;;;;;;7.03;3.63;;;22.00;99.90;;;;;;5085162;28;20027;-77
2022/06/25 08:44:03;;;;;;;7.10;3.53;;;22.10;99.90;;;;;;5078974;28;20250;-79
2022/06/25 08:46:30;;;;;;;5.88;3.80;;;22.40;99.90;;;;;;5089603;28;20019;-79
2022/06/25 08:48:59;;;;;;;6.47;3.80;;;22.50;99.90;;;;;;5075721;28;20124;-79
2022/06/25 08:51:28;;;;;;;9.75;4.65;;;22.80;99.90;;;;;;5086513;28;20020;-79
2022/06/25 08:53:54;;;;;;;10.80;5.32;;;23.00;99.90;;;;;;5074669;28;20028;-79
2022/06/25 08:56:21;;;;;;;9.60;5.65;;;23.30;99.90;;;;;;5077534;28;20047;-79
2022/06/25 08:58:47;;;;;;;11.20;5.47;;;23.40;99.90;;;;;;5074409;28;20056;-78
2022/06/25 09:01:12;;;;;;;10.55;5.30;;;23.50;99.90;;;;;;5075776;28;20032;-79
2022/06/25 09:03:39;;;;;;;9.48;5.22;;;23.60;99.90;;;;;;5078602;28;20047;-78
2022/06/25 09:06:13;;;;;;;9.32;5.50;;;23.60;99.90;;;;;;5086688;28;20412;-77
2022/06/25 09:08:39;;;;;;;7.75;4.25;;;23.70;99.90;;;;;;5086554;28;20515;-78
2022/06/25 09:11:05;;;;;;;6.22;3.65;;;23.70;99.90;;;;;;5085080;28;20028;-76
2022/06/25 09:13:31;;;;;;;6.00;3.45;;;23.70;99.90;;;;;;5076486;28;20480;-78
2022/06/25 09:15:56;;;;;;;9.15;3.97;;;23.80;99.90;;;;;;5082326;28;20077;-77
2022/06/25 09:18:22;;;;;;;6.85;3.80;;;23.90;99.90;;;;;;5084919;28;20046;-77
2022/06/25 09:21:02;;;;;;;5.82;3.70;;;24.00;99.90;;;;;;5085045;28;20020;-76
2022/06/25 09:23:30;;;;;;;5.80;5.30;;;23.90;99.90;;;;;;5083455;28;20025;-78
2022/06/25 09:26:09;;;;;;;5.60;5.15;;;23.90;99.90;;;;;;5085950;28;20036;-77
2022/06/25 09:28:40;;;;;;;4.13;3.80;;;23.70;99.90;;;;;;5093327;28;20032;-76
2022/06/25 09:31:07;;;;;;;5.18;4.65;;;23.50;99.90;;;;;;5074607;28;20086;-77
2022/06/25 09:33:34;;;;;;;5.28;4.88;;;23.30;99.90;;;;;;5074214;28;20042;-76
2022/06/25 09:36:00;;;;;;;5.95;5.45;;;23.30;99.90;;;;;;5074862;28;20100;-77
2022/06/25 09:38:26;;;;;;;4.72;4.35;;;23.10;99.90;;;;;;5074388;28;20519;-76
2022/06/25 09:40:56;;;;;;;9.55;6.45;;;23.00;99.90;;;;;;5073812;28;20105;-77
2022/06/25 09:43:24;;;;;;;11.48;6.22;;;22.90;99.90;;;;;;5081437;28;20020;-79
2022/06/25 09:45:52;;;;;;;13.07;8.43;;;22.70;99.90;;;;;;5078703;28;20035;-78
2022/06/25 09:48:18;;;;;;;19.08;9.88;;;22.40;99.90;;;;;;5074193;28;20051;-79
2022/06/25 09:51:03;;;;;;;18.92;9.23;;;22.20;99.90;;;;;;5089423;28;20258;-79
2022/06/25 09:53:28;;;;;;;15.45;8.02;;;21.90;99.90;;;;;;5088436;28;20529;-79
2022/06/25 09:55:57;;;;;;;11.25;7.18;;;21.70;99.90;;;;;;5088135;28;20107;-78
2022/06/25 09:58:25;;;;;;;9.85;6.80;;;21.50;99.90;;;;;;5090112;28;20024;-78
2022/06/25 10:00:52;;;;;;;9.65;7.28;;;21.40;99.90;;;;;;5086151;28;20770;-78
2022/06/25 10:03:19;;;;;;;8.95;6.95;;;21.20;99.90;;;;;;5088748;28;20040;-78
2022/06/25 10:05:46;;;;;;;8.00;6.53;;;21.20;99.90;;;;;;5091296;28;20027;-79
2022/06/25 10:08:14;;;;;;;6.40;5.72;;;21.20;99.90;;;;;;5088693;28;20013;-81
2022/06/25 10:10:44;;;;;;;8.57;6.32;;;21.20;99.90;;;;;;5084885;28;20503;-82
2022/06/25 10:13:10;;;;;;;6.80;6.05;;;21.30;99.90;;;;;;5080697;28;20067;-80
2022/06/25 10:15:37;;;;;;;7.15;6.32;;;21.40;99.90;;;;;;5088435;28;20028;-80
2022/06/25 10:18:04;;;;;;;6.20;5.05;;;21.60;99.90;;;;;;5088191;28;20024;-78
2022/06/25 10:20:31;;;;;;;5.30;4.80;;;21.70;99.90;;;;;;5088925;28;20021;-80
2022/06/25 10:22:59;;;;;;;5.72;4.55;;;21.80;99.90;;;;;;5072976;28;20040;-79
2022/06/25 10:25:27;;;;;;;4.35;4.05;;;21.80;99.90;;;;;;5073473;28;20036;-78
2022/06/25 10:28:14;;;;;;;3.85;3.58;;;22.00;99.90;;;;;;5073819;28;20016;-79
2022/06/25 10:30:50;;;;;;;4.53;3.78;;;22.10;99.90;;;;;;5072852;28;20550;-80
2022/06/25 10:33:28;;;;;;;4.25;3.85;;;22.10;99.90;;;;;;5074058;28;20128;-79
2022/06/25 10:35:58;;;;;;;4.40;3.83;;;22.20;99.90;;;;;;5080021;28;20012;-79
2022/06/25 10:38:27;;;;;;;3.67;3.38;;;22.30;99.90;;;;;;5073608;28;20097;-79
2022/06/25 10:42:58;;;;;;;3.50;3.03;;;22.20;99.90;;;;;;5073853;28;20453;-79
2022/06/25 10:43:53;;;;;;;3.50;3.30;;;22.30;99.90;;;;;;5079213;28;20043;-79
2022/06/25 10:46:23;;;;;;;3.55;3.30;;;22.40;99.90;;;;;;5080096;28;20020;-79
2022/06/25 10:49:05;;;;;;;3.95;3.50;;;22.50;99.90;;;;;;5073433;28;20032;-79
2022/06/25 10:51:31;;;;;;;4.28;3.35;;;22.60;99.90;;;;;;5078768;28;20034;-79
2022/06/25 10:53:59;;;;;;;5.03;3.10;;;22.80;99.90;;;;;;5072961;28;20380;-79
2022/06/25 10:56:25;;;;;;;3.85;3.38;;;23.00;99.90;;;;;;5073279;28;20529;-83
2022/06/25 10:58:51;;;;;;;3.65;3.35;;;23.00;99.90;;;;;;5073587;28;20365;-79
2022/06/25 11:01:27;;;;;;;3.10;2.83;;;23.00;99.90;;;;;;5077409;28;20495;-80
2022/06/25 11:03:55;;;;;;;4.82;3.15;;;23.10;99.90;;;;;;5083024;28;20052;-76
2022/06/25 11:06:24;;;;;;;6.47;3.33;;;23.30;99.90;;;;;;5084991;28;20402;-76
2022/06/25 11:08:52;;;;;;;3.80;3.03;;;23.20;99.90;;;;;;5077107;28;20591;-74
2022/06/25 11:11:28;;;;;;;3.22;2.92;;;23.00;99.90;;;;;;5071708;28;20029;-73
2022/06/25 11:13:55;;;;;;;5.65;3.85;;;23.00;99.90;;;;;;5071899;28;20109;-73
2022/06/25 11:16:21;;;;;;;4.18;3.70;;;23.10;99.90;;;;;;5072299;28;20027;-74
2022/06/25 11:18:47;;;;;;;5.03;3.45;;;23.10;99.90;;;;;;5071618;28;20447;-74
2022/06/25 11:21:25;;;;;;;4.10;3.60;;;23.10;99.90;;;;;;5072148;28;20016;-74
2022/06/25 11:23:52;;;;;;;4.82;3.75;;;23.20;99.90;;;;;;5074961;28;20028;-73
2022/06/25 11:29:21;;;;;;;3.85;2.95;;;23.40;99.90;;;;;;5034702;28;20069;-73
2022/06/25 11:31:49;;;;;;;5.07;2.95;;;23.70;99.90;;;;;;5072238;28;20017;-74
2022/06/25 11:34:19;;;;;;;3.38;2.75;;;24.00;99.90;;;;;;5071111;28;20021;-72
2022/06/25 11:36:54;;;;;;;3.15;2.90;;;24.10;99.90;;;;;;5072352;28;20024;-73
2022/06/25 11:39:19;;;;;;;2.88;2.67;;;24.30;99.90;;;;;;5071417;28;20078;-73
2022/06/25 11:41:50;;;;;;;3.20;3.00;;;24.40;99.90;;;;;;5072778;28;20021;-73
2022/06/25 11:44:15;;;;;;;4.65;4.25;;;24.60;99.90;;;;;;5072254;28;20017;-73
2022/06/25 11:46:41;;;;;;;3.55;3.30;;;24.60;99.90;;;;;;5071313;28;20035;-74
2022/06/25 11:49:06;;;;;;;7.72;3.60;;;24.80;99.90;;;;;;5071368;28;20040;-73
2022/06/25 11:51:32;;;;;;;4.97;3.45;;;24.90;99.90;;;;;;5072424;28;20036;-73
2022/06/25 11:54:04;;;;;;;4.95;3.80;;;25.00;99.90;;;;;;5072026;28;20028;-77
2022/06/25 11:56:30;;;;;;;3.90;3.38;;;25.10;99.90;;;;;;5077972;28;20072;-77
2022/06/25 11:58:55;;;;;;;2.90;2.70;;;25.00;99.90;;;;;;5089751;28;20028;-78
2022/06/25 12:01:28;;;;;;;4.28;3.88;;;24.80;99.90;;;;;;5089267;28;20024;-79
2022/06/25 12:03:54;;;;;;;3.92;3.20;;;24.60;99.90;;;;;;5087545;28;20044;-79
2022/06/25 12:06:22;;;;;;;4.47;4.13;;;24.50;99.90;;;;;;5082210;28;20025;-78
2022/06/25 12:08:48;;;;;;;3.88;3.42;;;24.40;99.90;;;;;;5082078;28;20107;-80
2022/06/25 12:11:13;;;;;;;4.60;3.78;;;24.30;99.90;;;;;;5084017;28;20047;-78
2022/06/25 12:13:39;;;;;;;5.78;3.35;;;24.40;99.90;;;;;;5081418;28;20111;-78
2022/06/25 12:16:05;;;;;;;5.80;4.80;;;24.50;99.90;;;;;;5093853;28;20099;-78
2022/06/25 12:18:41;;;;;;;3.60;3.30;;;24.70;99.90;;;;;;5093171;28;20520;-78
2022/06/25 12:21:08;;;;;;;6.18;4.47;;;24.80;99.90;;;;;;5091797;28;20024;-77
2022/06/25 12:23:56;;;;;;;3.17;2.97;;;24.90;99.90;;;;;;5090804;28;20077;-78
2022/06/25 12:26:31;;;;;;;3.53;2.55;;;25.20;99.90;;;;;;5094095;28;20008;-79
2022/06/25 12:29:14;;;;;;;4.07;2.42;;;25.30;99.90;;;;;;5093064;28;20043;-78
2022/06/25 12:31:41;;;;;;;2.58;1.80;;;25.30;99.90;;;;;;5097121;28;20352;-79
2022/06/25 12:34:07;;;;;;;2.15;1.95;;;25.40;99.90;;;;;;5093838;28;20487;-80
2022/06/25 12:36:38;;;;;;;2.95;2.03;;;25.40;99.90;;;;;;5093944;28;20056;-79
2022/06/25 12:39:36;;;;;;;3.40;1.90;;;25.40;99.90;;;;;;5088747;28;20032;-78
2022/06/25 12:42:05;;;;;;;3.20;1.40;;;25.40;99.90;;;;;;5090081;28;20031;-79
2022/06/25 12:44:37;;;;;;;1.83;1.38;;;25.50;99.90;;;;;;5086418;28;20487;-78
2022/06/25 12:47:12;;;;;;;2.75;1.50;;;25.70;99.90;;;;;;5092804;28;20551;-80
2022/06/25 12:49:48;;;;;;;2.28;1.20;;;25.90;99.90;;;;;;5092873;28;20028;-80
2022/06/25 12:52:17;;;;;;;3.65;2.17;;;26.10;99.90;;;;;;5091980;28;20052;-79
2022/06/25 12:54:48;;;;;;;2.95;1.83;;;26.30;99.10;;;;;;5091306;28;20468;-79
2022/06/25 12:57:29;;;;;;;4.03;2.05;;;26.30;99.10;;;;;;5073831;28;20083;-79